sensor_id;sensor_type;location;lat;lon;timestamp;P1;durP1;ratioP1;P2;durP2;ratioP2
42586;SDS011;28216;53.362;-6.288;2023-04-25T00:01:03;3.55;;;1.70;;
42586;SDS011;28216;53.362;-6.288;2023-04-25T00:03:33;4.38;;;1.75;;
42586;SDS011;28216;53.362;-6.288;2023-04-25T00:06:00;2.80;;;1.58;;
42586;SDS011;28216;53.362;-6.288;2023-04-25T00:08:29;3.20;;;1.50;;
42586;SDS011;28216;53.362;-6.288;2023-04-25T00:10:55;2.60;;;1.50;;
42586;SDS011;28216;53.362;-6.288;2023-04-25T00:13:25;5.20;;;1.85;;
42586;SDS011;28216;53.362;-6.288;2023-04-25T00:15:51;3.10;;;1.83;;
42586;SDS011;28216;53.362;-6.288;2023-04-25T00:18:18;2.40;;;1.40;;
42586;SDS011;28216;53.362;-6.288;2023-04-25T00:20:46;2.05;;;1.60;;
42586;SDS011;28216;53.362;-6.288;2023-04-25T00:23:13;2.60;;;1.65;;
42586;SDS011;28216;53.362;-6.288;2023-04-25T00:25:45;2.50;;;1.67;;
42586;SDS011;28216;53.362;-6.288;2023-04-25T00:28:12;5.45;;;1.58;;
42586;SDS011;28216;53.362;-6.288;2023-04-25T00:30:39;2.67;;;1.42;;
42586;SDS011;28216;53.362;-6.288;2023-04-25T00:33:05;2.42;;;1.70;;
42586;SDS011;28216;53.362;-6.288;2023-04-25T00:35:31;2.33;;;1.67;;
42586;SDS011;28216;53.362;-6.288;2023-04-25T00:37:56;2.72;;;1.65;;
42586;SDS011;28216;53.362;-6.288;2023-04-25T00:40:22;2.60;;;1.67;;
42586;SDS011;28216;53.362;-6.288;2023-04-25T00:42:47;3.85;;;2.00;;
42586;SDS011;28216;53.362;-6.288;2023-04-25T00:45:14;2.78;;;1.70;;
42586;SDS011;28216;53.362;-6.288;2023-04-25T00:47:41;3.67;;;1.85;;
42586;SDS011;28216;53.362;-6.288;2023-04-25T00:50:07;2.90;;;1.80;;
42586;SDS011;28216;53.362;-6.288;2023-04-25T00:52:33;2.47;;;1.80;;
42586;SDS011;28216;53.362;-6.288;2023-04-25T00:54:59;4.20;;;2.00;;
42586;SDS011;28216;53.362;-6.288;2023-04-25T00:57:25;3.75;;;2.00;;
42586;SDS011;28216;53.362;-6.288;2023-04-25T00:59:51;3.85;;;2.05;;
42586;SDS011;28216;53.362;-6.288;2023-04-25T01:02:18;3.53;;;1.85;;
42586;SDS011;28216;53.362;-6.288;2023-04-25T01:04:44;4.15;;;1.95;;
42586;SDS011;28216;53.362;-6.288;2023-04-25T01:07:10;2.92;;;1.60;;
42586;SDS011;28216;53.362;-6.288;2023-04-25T01:09:35;4.05;;;2.05;;
42586;SDS011;28216;53.362;-6.288;2023-04-25T01:12:01;2.47;;;1.83;;
42586;SDS011;28216;53.362;-6.288;2023-04-25T01:14:28;2.90;;;1.88;;
42586;SDS011;28216;53.362;-6.288;2023-04-25T01:16:54;2.80;;;1.70;;
42586;SDS011;28216;53.362;-6.288;2023-04-25T01:19:20;2.63;;;1.80;;
42586;SDS011;28216;53.362;-6.288;2023-04-25T01:21:46;2.80;;;2.10;;
42586;SDS011;28216;53.362;-6.288;2023-04-25T01:24:12;3.20;;;1.90;;
42586;SDS011;28216;53.362;-6.288;2023-04-25T01:26:38;2.88;;;1.60;;
42586;SDS011;28216;53.362;-6.288;2023-04-25T01:29:05;4.03;;;2.00;;
42586;SDS011;28216;53.362;-6.288;2023-04-25T01:31:32;1.98;;;1.65;;
42586;SDS011;28216;53.362;-6.288;2023-04-25T01:34:00;5.45;;;2.10;;
42586;SDS011;28216;53.362;-6.288;2023-04-25T01:36:25;3.03;;;1.83;;
42586;SDS011;28216;53.362;-6.288;2023-04-25T01:38:52;4.32;;;2.25;;
42586;SDS011;28216;53.362;-6.288;2023-04-25T01:41:17;2.80;;;2.20;;
42586;SDS011;28216;53.362;-6.288;2023-04-25T01:43:44;3.03;;;2.10;;
42586;SDS011;28216;53.362;-6.288;2023-04-25T01:46:10;2.15;;;1.95;;
42586;SDS011;28216;53.362;-6.288;2023-04-25T01:48:36;2.83;;;2.47;;
42586;SDS011;28216;53.362;-6.288;2023-04-25T01:51:02;2.90;;;2.38;;
42586;SDS011;28216;53.362;-6.288;2023-04-25T01:53:28;3.67;;;2.40;;
42586;SDS011;28216;53.362;-6.288;2023-04-25T01:55:53;3.90;;;2.10;;
42586;SDS011;28216;53.362;-6.288;2023-04-25T01:58:19;3.20;;;2.13;;
42586;SDS011;28216;53.362;-6.288;2023-04-25T02:00:44;4.45;;;2.65;;
42586;SDS011;28216;53.362;-6.288;2023-04-25T02:03:09;3.40;;;2.20;;
42586;SDS011;28216;53.362;-6.288;2023-04-25T02:05:38;2.58;;;2.13;;
42586;SDS011;28216;53.362;-6.288;2023-04-25T02:08:05;5.45;;;2.47;;
42586;SDS011;28216;53.362;-6.288;2023-04-25T02:10:32;6.07;;;2.63;;
42586;SDS011;28216;53.362;-6.288;2023-04-25T02:12:58;3.45;;;2.60;;
42586;SDS011;28216;53.362;-6.288;2023-04-25T02:15:24;5.03;;;2.63;;
42586;SDS011;28216;53.362;-6.288;2023-04-25T02:17:49;4.78;;;2.45;;
42586;SDS011;28216;53.362;-6.288;2023-04-25T02:20:17;3.78;;;2.70;;
42586;SDS011;28216;53.362;-6.288;2023-04-25T02:22:46;4.18;;;2.55;;
42586;SDS011;28216;53.362;-6.288;2023-04-25T02:25:12;3.38;;;2.10;;
42586;SDS011;28216;53.362;-6.288;2023-04-25T02:27:38;4.35;;;2.40;;
42586;SDS011;28216;53.362;-6.288;2023-04-25T02:30:04;5.22;;;2.70;;
42586;SDS011;28216;53.362;-6.288;2023-04-25T02:32:31;5.47;;;2.60;;
42586;SDS011;28216;53.362;-6.288;2023-04-25T02:34:57;5.32;;;3.30;;
42586;SDS011;28216;53.362;-6.288;2023-04-25T02:37:28;5.13;;;3.25;;
42586;SDS011;28216;53.362;-6.288;2023-04-25T02:39:57;7.72;;;3.90;;
42586;SDS011;28216;53.362;-6.288;2023-04-25T02:42:23;5.18;;;3.67;;
42586;SDS011;28216;53.362;-6.288;2023-04-25T02:44:49;6.55;;;3.75;;
42586;SDS011;28216;53.362;-6.288;2023-04-25T02:47:14;5.82;;;3.63;;
42586;SDS011;28216;53.362;-6.288;2023-04-25T02:49:40;4.13;;;3.40;;
42586;SDS011;28216;53.362;-6.288;2023-04-25T02:52:05;5.88;;;3.45;;
42586;SDS011;28216;53.362;-6.288;2023-04-25T02:54:31;7.18;;;4.13;;
42586;SDS011;28216;53.362;-6.288;2023-04-25T02:56:56;7.05;;;4.28;;
42586;SDS011;28216;53.362;-6.288;2023-04-25T02:59:22;7.25;;;4.88;;
42586;SDS011;28216;53.362;-6.288;2023-04-25T03:01:47;5.93;;;5.32;;
42586;SDS011;28216;53.362;-6.288;2023-04-25T03:04:13;6.75;;;4.68;;
42586;SDS011;28216;53.362;-6.288;2023-04-25T03:06:38;7.63;;;5.10;;
42586;SDS011;28216;53.362;-6.288;2023-04-25T03:09:03;8.18;;;4.97;;
42586;SDS011;28216;53.362;-6.288;2023-04-25T03:11:29;6.18;;;4.85;;
42586;SDS011;28216;53.362;-6.288;2023-04-25T03:13:54;5.63;;;4.32;;
42586;SDS011;28216;53.362;-6.288;2023-04-25T03:16:20;8.02;;;3.90;;
42586;SDS011;28216;53.362;-6.288;2023-04-25T03:18:46;6.85;;;4.20;;
42586;SDS011;28216;53.362;-6.288;2023-04-25T03:21:12;7.65;;;3.72;;
42586;SDS011;28216;53.362;-6.288;2023-04-25T03:23:37;4.43;;;3.00;;
42586;SDS011;28216;53.362;-6.288;2023-04-25T03:26:03;5.38;;;3.08;;
42586;SDS011;28216;53.362;-6.288;2023-04-25T03:28:28;5.93;;;3.20;;
42586;SDS011;28216;53.362;-6.288;2023-04-25T03:30:54;4.30;;;2.92;;
42586;SDS011;28216;53.362;-6.288;2023-04-25T03:33:19;3.80;;;2.65;;
42586;SDS011;28216;53.362;-6.288;2023-04-25T03:35:45;5.25;;;2.80;;
42586;SDS011;28216;53.362;-6.288;2023-04-25T03:38:10;4.65;;;2.72;;
42586;SDS011;28216;53.362;-6.288;2023-04-25T03:40:36;5.63;;;2.65;;
42586;SDS011;28216;53.362;-6.288;2023-04-25T03:43:01;9.55;;;2.80;;
42586;SDS011;28216;53.362;-6.288;2023-04-25T03:45:27;8.90;;;2.70;;
42586;SDS011;28216;53.362;-6.288;2023-04-25T03:47:52;4.50;;;2.50;;
42586;SDS011;28216;53.362;-6.288;2023-04-25T03:50:18;4.95;;;3.20;;
42586;SDS011;28216;53.362;-6.288;2023-04-25T03:52:43;6.68;;;3.17;;
42586;SDS011;28216;53.362;-6.288;2023-04-25T03:55:09;6.35;;;3.20;;
42586;SDS011;28216;53.362;-6.288;2023-04-25T03:57:35;7.28;;;3.42;;
42586;SDS011;28216;53.362;-6.288;2023-04-25T04:00:00;7.57;;;3.47;;
42586;SDS011;28216;53.362;-6.288;2023-04-25T04:02:26;5.45;;;3.80;;
42586;SDS011;28216;53.362;-6.288;2023-04-25T04:04:51;6.75;;;3.60;;
42586;SDS011;28216;53.362;-6.288;2023-04-25T04:07:17;6.07;;;3.38;;
42586;SDS011;28216;53.362;-6.288;2023-04-25T04:09:42;5.18;;;3.90;;
42586;SDS011;28216;53.362;-6.288;2023-04-25T04:12:08;6.45;;;3.40;;
42586;SDS011;28216;53.362;-6.288;2023-04-25T04:14:33;4.43;;;3.33;;
42586;SDS011;28216;53.362;-6.288;2023-04-25T04:16:59;4.70;;;3.40;;
42586;SDS011;28216;53.362;-6.288;2023-04-25T04:19:25;7.47;;;3.78;;
42586;SDS011;28216;53.362;-6.288;2023-04-25T04:21:50;9.02;;;4.00;;
42586;SDS011;28216;53.362;-6.288;2023-04-25T04:24:16;7.80;;;3.85;;
42586;SDS011;28216;53.362;-6.288;2023-04-25T04:26:42;6.15;;;3.65;;
42586;SDS011;28216;53.362;-6.288;2023-04-25T04:29:10;6.38;;;4.00;;
42586;SDS011;28216;53.362;-6.288;2023-04-25T04:31:36;9.35;;;4.20;;
42586;SDS011;28216;53.362;-6.288;2023-04-25T04:34:02;7.72;;;3.80;;
42586;SDS011;28216;53.362;-6.288;2023-04-25T04:36:28;12.15;;;4.07;;
42586;SDS011;28216;53.362;-6.288;2023-04-25T04:38:54;7.78;;;4.20;;
42586;SDS011;28216;53.362;-6.288;2023-04-25T04:41:21;6.47;;;3.90;;
42586;SDS011;28216;53.362;-6.288;2023-04-25T04:43:47;7.70;;;3.65;;
42586;SDS011;28216;53.362;-6.288;2023-04-25T04:46:12;4.90;;;3.97;;
42586;SDS011;28216;53.362;-6.288;2023-04-25T04:48:38;6.88;;;4.10;;
42586;SDS011;28216;53.362;-6.288;2023-04-25T04:51:05;7.57;;;4.35;;
42586;SDS011;28216;53.362;-6.288;2023-04-25T04:53:31;6.57;;;4.30;;
42586;SDS011;28216;53.362;-6.288;2023-04-25T04:55:57;8.00;;;4.82;;
42586;SDS011;28216;53.362;-6.288;2023-04-25T04:58:23;9.75;;;4.70;;
42586;SDS011;28216;53.362;-6.288;2023-04-25T05:00:49;8.15;;;4.50;;
42586;SDS011;28216;53.362;-6.288;2023-04-25T05:03:14;7.70;;;4.13;;
42586;SDS011;28216;53.362;-6.288;2023-04-25T05:05:40;8.43;;;4.20;;
42586;SDS011;28216;53.362;-6.288;2023-04-25T05:08:06;6.72;;;4.28;;
42586;SDS011;28216;53.362;-6.288;2023-04-25T05:10:32;12.00;;;4.53;;
42586;SDS011;28216;53.362;-6.288;2023-04-25T05:12:57;7.28;;;4.40;;
42586;SDS011;28216;53.362;-6.288;2023-04-25T05:15:23;6.35;;;3.75;;
42586;SDS011;28216;53.362;-6.288;2023-04-25T05:17:48;5.97;;;4.03;;
42586;SDS011;28216;53.362;-6.288;2023-04-25T05:20:14;7.50;;;4.35;;
42586;SDS011;28216;53.362;-6.288;2023-04-25T05:22:40;8.32;;;4.20;;
42586;SDS011;28216;53.362;-6.288;2023-04-25T05:25:06;8.15;;;4.00;;
42586;SDS011;28216;53.362;-6.288;2023-04-25T05:27:33;7.15;;;4.35;;
42586;SDS011;28216;53.362;-6.288;2023-04-25T05:29:59;7.75;;;4.60;;
42586;SDS011;28216;53.362;-6.288;2023-04-25T05:32:24;8.32;;;4.80;;
42586;SDS011;28216;53.362;-6.288;2023-04-25T05:34:50;7.38;;;4.30;;
42586;SDS011;28216;53.362;-6.288;2023-04-25T05:37:16;5.78;;;4.20;;
42586;SDS011;28216;53.362;-6.288;2023-04-25T05:39:42;8.32;;;4.10;;
42586;SDS011;28216;53.362;-6.288;2023-04-25T05:42:07;6.07;;;4.38;;
42586;SDS011;28216;53.362;-6.288;2023-04-25T05:44:33;7.00;;;4.63;;
42586;SDS011;28216;53.362;-6.288;2023-04-25T05:46:58;8.13;;;4.20;;
42586;SDS011;28216;53.362;-6.288;2023-04-25T05:49:24;7.70;;;4.28;;
42586;SDS011;28216;53.362;-6.288;2023-04-25T05:51:49;8.43;;;4.38;;
42586;SDS011;28216;53.362;-6.288;2023-04-25T05:54:15;8.40;;;4.38;;
42586;SDS011;28216;53.362;-6.288;2023-04-25T05:56:40;7.72;;;4.50;;
42586;SDS011;28216;53.362;-6.288;2023-04-25T05:59:06;8.07;;;4.53;;
42586;SDS011;28216;53.362;-6.288;2023-04-25T06:01:31;9.00;;;4.22;;
42586;SDS011;28216;53.362;-6.288;2023-04-25T06:03:57;8.10;;;4.10;;
42586;SDS011;28216;53.362;-6.288;2023-04-25T06:06:25;6.78;;;4.00;;
42586;SDS011;28216;53.362;-6.288;2023-04-25T06:08:51;4.93;;;3.47;;
42586;SDS011;28216;53.362;-6.288;2023-04-25T06:11:17;7.63;;;3.60;;
42586;SDS011;28216;53.362;-6.288;2023-04-25T06:13:42;8.85;;;4.10;;
42586;SDS011;28216;53.362;-6.288;2023-04-25T06:16:08;6.53;;;3.38;;
42586;SDS011;28216;53.362;-6.288;2023-04-25T06:18:33;4.70;;;3.03;;
42586;SDS011;28216;53.362;-6.288;2023-04-25T06:21:22;6.00;;;3.00;;
42586;SDS011;28216;53.362;-6.288;2023-04-25T06:23:47;5.20;;;3.40;;
42586;SDS011;28216;53.362;-6.288;2023-04-25T06:26:15;9.48;;;3.92;;
42586;SDS011;28216;53.362;-6.288;2023-04-25T06:28:44;5.47;;;3.42;;
42586;SDS011;28216;53.362;-6.288;2023-04-25T06:31:09;8.75;;;3.15;;
42586;SDS011;28216;53.362;-6.288;2023-04-25T06:33:35;6.43;;;2.90;;
42586;SDS011;28216;53.362;-6.288;2023-04-25T06:36:01;5.15;;;3.13;;
42586;SDS011;28216;53.362;-6.288;2023-04-25T06:38:26;7.82;;;3.13;;
42586;SDS011;28216;53.362;-6.288;2023-04-25T06:40:52;3.65;;;2.70;;
42586;SDS011;28216;53.362;-6.288;2023-04-25T06:43:17;8.00;;;3.40;;
42586;SDS011;28216;53.362;-6.288;2023-04-25T06:45:45;11.30;;;4.07;;
42586;SDS011;28216;53.362;-6.288;2023-04-25T06:48:10;9.27;;;4.07;;
42586;SDS011;28216;53.362;-6.288;2023-04-25T06:50:36;8.15;;;4.07;;
42586;SDS011;28216;53.362;-6.288;2023-04-25T06:53:01;8.82;;;3.83;;
42586;SDS011;28216;53.362;-6.288;2023-04-25T06:55:27;7.38;;;3.67;;
42586;SDS011;28216;53.362;-6.288;2023-04-25T06:57:52;5.85;;;3.33;;
42586;SDS011;28216;53.362;-6.288;2023-04-25T07:00:18;6.53;;;3.00;;
42586;SDS011;28216;53.362;-6.288;2023-04-25T07:02:44;6.28;;;3.03;;
42586;SDS011;28216;53.362;-6.288;2023-04-25T07:05:09;6.63;;;3.20;;
42586;SDS011;28216;53.362;-6.288;2023-04-25T07:07:35;9.68;;;3.50;;
42586;SDS011;28216;53.362;-6.288;2023-04-25T07:10:02;10.15;;;3.22;;
42586;SDS011;28216;53.362;-6.288;2023-04-25T08:06:56;9.43;;;3.08;;
42586;SDS011;28216;53.362;-6.288;2023-04-25T08:09:21;8.95;;;3.58;;
42586;SDS011;28216;53.362;-6.288;2023-04-25T08:11:47;7.35;;;3.47;;
42586;SDS011;28216;53.362;-6.288;2023-04-25T08:24:32;7.55;;;3.25;;
42586;SDS011;28216;53.362;-6.288;2023-04-25T08:26:57;6.93;;;3.00;;
42586;SDS011;28216;53.362;-6.288;2023-04-25T08:29:23;10.18;;;3.67;;
42586;SDS011;28216;53.362;-6.288;2023-04-25T08:31:50;9.02;;;3.97;;
42586;SDS011;28216;53.362;-6.288;2023-04-25T08:34:18;11.40;;;3.50;;
42586;SDS011;28216;53.362;-6.288;2023-04-25T08:36:43;10.50;;;3.33;;
42586;SDS011;28216;53.362;-6.288;2023-04-25T08:39:09;5.40;;;2.88;;
42586;SDS011;28216;53.362;-6.288;2023-04-25T08:41:36;7.55;;;3.35;;
42586;SDS011;28216;53.362;-6.288;2023-04-25T08:44:02;4.57;;;2.90;;
42586;SDS011;28216;53.362;-6.288;2023-04-25T08:46:29;6.45;;;3.30;;
42586;SDS011;28216;53.362;-6.288;2023-04-25T08:49:00;6.35;;;3.28;;
42586;SDS011;28216;53.362;-6.288;2023-04-25T08:51:27;10.18;;;5.05;;
42586;SDS011;28216;53.362;-6.288;2023-04-25T08:53:57;5.30;;;2.05;;
42586;SDS011;28216;53.362;-6.288;2023-04-25T08:56:37;6.60;;;1.83;;
42586;SDS011;28216;53.362;-6.288;2023-04-25T08:59:05;5.18;;;2.00;;
42586;SDS011;28216;53.362;-6.288;2023-04-25T09:01:33;4.75;;;2.08;;
42586;SDS011;28216;53.362;-6.288;2023-04-25T09:07:04;5.40;;;2.42;;
42586;SDS011;28216;53.362;-6.288;2023-04-25T09:09:30;7.53;;;2.53;;
42586;SDS011;28216;53.362;-6.288;2023-04-25T09:12:07;5.50;;;2.80;;
42586;SDS011;28216;53.362;-6.288;2023-04-25T09:14:33;4.47;;;2.22;;
42586;SDS011;28216;53.362;-6.288;2023-04-25T09:16:59;8.25;;;2.35;;
42586;SDS011;28216;53.362;-6.288;2023-04-25T09:22:47;4.38;;;2.17;;
42586;SDS011;28216;53.362;-6.288;2023-04-25T09:25:13;6.15;;;2.10;;
42586;SDS011;28216;53.362;-6.288;2023-04-25T09:30:45;3.97;;;2.05;;
42586;SDS011;28216;53.362;-6.288;2023-04-25T09:33:12;6.30;;;1.90;;
42586;SDS011;28216;53.362;-6.288;2023-04-25T09:35:39;3.47;;;1.73;;
42586;SDS011;28216;53.362;-6.288;2023-04-25T09:38:09;10.30;;;4.80;;
42586;SDS011;28216;53.362;-6.288;2023-04-25T09:40:42;7.82;;;1.85;;
42586;SDS011;28216;53.362;-6.288;2023-04-25T09:43:09;5.05;;;1.80;;
42586;SDS011;28216;53.362;-6.288;2023-04-25T09:45:41;7.72;;;1.90;;
42586;SDS011;28216;53.362;-6.288;2023-04-25T09:51:32;4.57;;;1.95;;
42586;SDS011;28216;53.362;-6.288;2023-04-25T09:53:57;5.55;;;2.20;;
42586;SDS011;28216;53.362;-6.288;2023-04-25T09:56:23;4.15;;;1.60;;
42586;SDS011;28216;53.362;-6.288;2023-04-25T09:58:51;3.33;;;1.50;;
42586;SDS011;28216;53.362;-6.288;2023-04-25T10:01:20;5.50;;;2.05;;
42586;SDS011;28216;53.362;-6.288;2023-04-25T10:03:46;6.55;;;1.88;;
42586;SDS011;28216;53.362;-6.288;2023-04-25T10:06:18;5.07;;;1.80;;
42586;SDS011;28216;53.362;-6.288;2023-04-25T10:08:45;3.22;;;1.70;;
42586;SDS011;28216;53.362;-6.288;2023-04-25T10:11:15;5.30;;;1.90;;
42586;SDS011;28216;53.362;-6.288;2023-04-25T10:13:42;5.13;;;1.90;;
42586;SDS011;28216;53.362;-6.288;2023-04-25T10:16:08;5.65;;;2.20;;
42586;SDS011;28216;53.362;-6.288;2023-04-25T10:18:33;4.78;;;2.00;;
42586;SDS011;28216;53.362;-6.288;2023-04-25T10:21:03;5.28;;;1.60;;
42586;SDS011;28216;53.362;-6.288;2023-04-25T10:23:30;5.57;;;2.10;;
42586;SDS011;28216;53.362;-6.288;2023-04-25T10:25:56;2.05;;;1.50;;
42586;SDS011;28216;53.362;-6.288;2023-04-25T10:28:23;3.88;;;1.80;;
42586;SDS011;28216;53.362;-6.288;2023-04-25T10:31:02;3.03;;;1.73;;
42586;SDS011;28216;53.362;-6.288;2023-04-25T10:33:32;6.97;;;1.95;;
42586;SDS011;28216;53.362;-6.288;2023-04-25T10:35:58;2.88;;;1.40;;
42586;SDS011;28216;53.362;-6.288;2023-04-25T10:38:33;4.75;;;1.60;;
42586;SDS011;28216;53.362;-6.288;2023-04-25T10:41:05;2.88;;;1.70;;
42586;SDS011;28216;53.362;-6.288;2023-04-25T10:43:43;4.43;;;1.70;;
42586;SDS011;28216;53.362;-6.288;2023-04-25T10:46:13;4.18;;;1.48;;
42586;SDS011;28216;53.362;-6.288;2023-04-25T10:48:48;4.47;;;1.70;;
42586;SDS011;28216;53.362;-6.288;2023-04-25T10:51:18;2.53;;;1.55;;
42586;SDS011;28216;53.362;-6.288;2023-04-25T10:56:21;4.13;;;1.83;;
42586;SDS011;28216;53.362;-6.288;2023-04-25T10:58:48;2.85;;;1.90;;
42586;SDS011;28216;53.362;-6.288;2023-04-25T11:01:14;4.28;;;2.22;;
42586;SDS011;28216;53.362;-6.288;2023-04-25T11:03:44;6.15;;;1.92;;
42586;SDS011;28216;53.362;-6.288;2023-04-25T11:06:35;4.07;;;1.90;;
42586;SDS011;28216;53.362;-6.288;2023-04-25T11:08:59;4.22;;;2.00;;
42586;SDS011;28216;53.362;-6.288;2023-04-25T11:11:27;2.95;;;1.70;;
42586;SDS011;28216;53.362;-6.288;2023-04-25T11:13:54;5.57;;;1.95;;
42586;SDS011;28216;53.362;-6.288;2023-04-25T11:16:19;3.95;;;1.90;;
42586;SDS011;28216;53.362;-6.288;2023-04-25T11:18:50;6.43;;;2.33;;
42586;SDS011;28216;53.362;-6.288;2023-04-25T11:21:15;5.75;;;2.08;;
42586;SDS011;28216;53.362;-6.288;2023-04-25T11:23:43;5.18;;;2.08;;
42586;SDS011;28216;53.362;-6.288;2023-04-25T11:26:10;4.00;;;1.60;;
42586;SDS011;28216;53.362;-6.288;2023-04-25T11:28:36;4.93;;;1.80;;
42586;SDS011;28216;53.362;-6.288;2023-04-25T11:31:02;3.40;;;1.80;;
42586;SDS011;28216;53.362;-6.288;2023-04-25T11:33:29;3.88;;;1.80;;
42586;SDS011;28216;53.362;-6.288;2023-04-25T11:35:55;4.93;;;1.60;;
42586;SDS011;28216;53.362;-6.288;2023-04-25T11:38:22;4.60;;;1.98;;
42586;SDS011;28216;53.362;-6.288;2023-04-25T11:40:51;6.90;;;1.73;;
42586;SDS011;28216;53.362;-6.288;2023-04-25T11:43:17;5.97;;;2.30;;
42586;SDS011;28216;53.362;-6.288;2023-04-25T11:45:49;3.80;;;2.10;;
42586;SDS011;28216;53.362;-6.288;2023-04-25T11:48:16;4.75;;;1.70;;
42586;SDS011;28216;53.362;-6.288;2023-04-25T11:50:42;5.13;;;2.03;;
42586;SDS011;28216;53.362;-6.288;2023-04-25T11:53:08;6.22;;;2.10;;
42586;SDS011;28216;53.362;-6.288;2023-04-25T11:55:34;3.95;;;2.30;;
42586;SDS011;28216;53.362;-6.288;2023-04-25T11:58:00;3.28;;;1.70;;
42586;SDS011;28216;53.362;-6.288;2023-04-25T12:00:26;6.28;;;1.88;;
42586;SDS011;28216;53.362;-6.288;2023-04-25T12:02:52;4.38;;;1.80;;
42586;SDS011;28216;53.362;-6.288;2023-04-25T12:05:19;3.95;;;2.10;;
42586;SDS011;28216;53.362;-6.288;2023-04-25T12:07:45;3.63;;;1.95;;
42586;SDS011;28216;53.362;-6.288;2023-04-25T12:10:12;4.78;;;1.92;;
42586;SDS011;28216;53.362;-6.288;2023-04-25T12:12:43;5.25;;;2.30;;
42586;SDS011;28216;53.362;-6.288;2023-04-25T12:15:13;8.27;;;2.75;;
42586;SDS011;28216;53.362;-6.288;2023-04-25T12:17:40;5.28;;;2.13;;
42586;SDS011;28216;53.362;-6.288;2023-04-25T12:20:08;4.53;;;2.35;;
42586;SDS011;28216;53.362;-6.288;2023-04-25T12:22:35;4.38;;;2.30;;
42586;SDS011;28216;53.362;-6.288;2023-04-25T12:25:01;5.75;;;2.20;;
42586;SDS011;28216;53.362;-6.288;2023-04-25T12:27:30;4.80;;;2.20;;
42586;SDS011;28216;53.362;-6.288;2023-04-25T12:29:56;3.63;;;1.90;;
42586;SDS011;28216;53.362;-6.288;2023-04-25T12:32:23;6.57;;;2.15;;
42586;SDS011;28216;53.362;-6.288;2023-04-25T12:34:48;4.30;;;2.28;;
42586;SDS011;28216;53.362;-6.288;2023-04-25T12:37:14;5.47;;;2.28;;
42586;SDS011;28216;53.362;-6.288;2023-04-25T12:39:40;6.40;;;2.00;;
42586;SDS011;28216;53.362;-6.288;2023-04-25T12:42:06;6.50;;;1.85;;
42586;SDS011;28216;53.362;-6.288;2023-04-25T12:44:33;4.47;;;1.83;;
42586;SDS011;28216;53.362;-6.288;2023-04-25T12:46:59;4.43;;;1.88;;
42586;SDS011;28216;53.362;-6.288;2023-04-25T12:49:25;5.25;;;1.77;;
42586;SDS011;28216;53.362;-6.288;2023-04-25T12:51:50;2.85;;;2.08;;
42586;SDS011;28216;53.362;-6.288;2023-04-25T12:54:16;4.88;;;1.92;;
42586;SDS011;28216;53.362;-6.288;2023-04-25T12:56:42;6.38;;;2.40;;
42586;SDS011;28216;53.362;-6.288;2023-04-25T12:59:07;5.28;;;1.90;;
42586;SDS011;28216;53.362;-6.288;2023-04-25T13:01:34;4.57;;;2.00;;
42586;SDS011;28216;53.362;-6.288;2023-04-25T13:04:00;5.63;;;1.75;;
42586;SDS011;28216;53.362;-6.288;2023-04-25T13:06:25;5.50;;;2.00;;
42586;SDS011;28216;53.362;-6.288;2023-04-25T13:08:52;5.35;;;1.90;;
42586;SDS011;28216;53.362;-6.288;2023-04-25T13:11:17;6.20;;;2.13;;
42586;SDS011;28216;53.362;-6.288;2023-04-25T13:13:43;5.97;;;2.10;;
42586;SDS011;28216;53.362;-6.288;2023-04-25T13:16:09;4.03;;;2.17;;
42586;SDS011;28216;53.362;-6.288;2023-04-25T13:18:35;4.82;;;2.35;;
42586;SDS011;28216;53.362;-6.288;2023-04-25T13:21:01;6.40;;;2.30;;
42586;SDS011;28216;53.362;-6.288;2023-04-25T13:23:29;7.28;;;2.72;;
42586;SDS011;28216;53.362;-6.288;2023-04-25T13:25:55;5.15;;;2.20;;
42586;SDS011;28216;53.362;-6.288;2023-04-25T13:28:26;5.35;;;2.50;;
42586;SDS011;28216;53.362;-6.288;2023-04-25T13:30:52;6.32;;;2.70;;
42586;SDS011;28216;53.362;-6.288;2023-04-25T13:33:19;6.72;;;2.60;;
42586;SDS011;28216;53.362;-6.288;2023-04-25T13:35:45;6.93;;;2.88;;
42586;SDS011;28216;53.362;-6.288;2023-04-25T13:38:12;6.85;;;2.88;;
42586;SDS011;28216;53.362;-6.288;2023-04-25T13:40:38;8.02;;;2.88;;
42586;SDS011;28216;53.362;-6.288;2023-04-25T13:43:04;8.10;;;3.28;;
42586;SDS011;28216;53.362;-6.288;2023-04-25T13:45:33;7.78;;;3.22;;
42586;SDS011;28216;53.362;-6.288;2023-04-25T13:48:00;9.25;;;3.50;;
42586;SDS011;28216;53.362;-6.288;2023-04-25T13:50:26;9.38;;;3.78;;
42586;SDS011;28216;53.362;-6.288;2023-04-25T13:52:51;6.78;;;3.20;;
42586;SDS011;28216;53.362;-6.288;2023-04-25T13:55:20;10.63;;;3.88;;
42586;SDS011;28216;53.362;-6.288;2023-04-25T13:57:48;8.68;;;3.17;;
42586;SDS011;28216;53.362;-6.288;2023-04-25T14:00:13;10.52;;;3.20;;
42586;SDS011;28216;53.362;-6.288;2023-04-25T14:02:39;9.40;;;2.85;;
42586;SDS011;28216;53.362;-6.288;2023-04-25T14:05:07;9.18;;;3.08;;
42586;SDS011;28216;53.362;-6.288;2023-04-25T14:07:36;9.35;;;3.05;;
42586;SDS011;28216;53.362;-6.288;2023-04-25T14:10:02;10.00;;;2.88;;
42586;SDS011;28216;53.362;-6.288;2023-04-25T14:12:29;10.05;;;3.30;;
42586;SDS011;28216;53.362;-6.288;2023-04-25T14:14:55;6.60;;;2.72;;
42586;SDS011;28216;53.362;-6.288;2023-04-25T14:17:20;10.90;;;3.33;;
42586;SDS011;28216;53.362;-6.288;2023-04-25T14:19:55;7.40;;;3.03;;
42586;SDS011;28216;53.362;-6.288;2023-04-25T14:22:23;11.95;;;3.30;;
42586;SDS011;28216;53.362;-6.288;2023-04-25T14:24:51;7.28;;;2.78;;
42586;SDS011;28216;53.362;-6.288;2023-04-25T14:27:17;8.68;;;3.03;;
42586;SDS011;28216;53.362;-6.288;2023-04-25T14:29:42;8.20;;;2.85;;
42586;SDS011;28216;53.362;-6.288;2023-04-25T14:32:10;8.00;;;2.65;;
42586;SDS011;28216;53.362;-6.288;2023-04-25T14:34:38;10.10;;;2.67;;
42586;SDS011;28216;53.362;-6.288;2023-04-25T14:37:06;7.78;;;2.50;;
42586;SDS011;28216;53.362;-6.288;2023-04-25T14:39:32;18.02;;;2.92;;
42586;SDS011;28216;53.362;-6.288;2023-04-25T14:41:57;8.85;;;3.00;;
42586;SDS011;28216;53.362;-6.288;2023-04-25T14:44:26;7.82;;;2.47;;
42586;SDS011;28216;53.362;-6.288;2023-04-25T14:46:51;7.50;;;2.63;;
42586;SDS011;28216;53.362;-6.288;2023-04-25T14:49:20;7.53;;;2.70;;
42586;SDS011;28216;53.362;-6.288;2023-04-25T14:51:49;6.43;;;2.38;;
42586;SDS011;28216;53.362;-6.288;2023-04-25T14:54:16;4.97;;;1.92;;
42586;SDS011;28216;53.362;-6.288;2023-04-25T14:56:42;5.30;;;2.42;;
42586;SDS011;28216;53.362;-6.288;2023-04-25T14:59:07;7.53;;;2.50;;
42586;SDS011;28216;53.362;-6.288;2023-04-25T15:01:33;6.15;;;2.40;;
42586;SDS011;28216;53.362;-6.288;2023-04-25T15:03:58;7.80;;;2.47;;
42586;SDS011;28216;53.362;-6.288;2023-04-25T15:06:24;7.32;;;2.15;;
42586;SDS011;28216;53.362;-6.288;2023-04-25T15:08:51;4.63;;;2.30;;
42586;SDS011;28216;53.362;-6.288;2023-04-25T15:11:17;8.65;;;2.30;;
42586;SDS011;28216;53.362;-6.288;2023-04-25T15:13:45;7.95;;;2.22;;
42586;SDS011;28216;53.362;-6.288;2023-04-25T15:16:10;9.88;;;2.30;;
42586;SDS011;28216;53.362;-6.288;2023-04-25T15:18:36;7.20;;;2.55;;
42586;SDS011;28216;53.362;-6.288;2023-04-25T15:21:02;7.30;;;2.40;;
42586;SDS011;28216;53.362;-6.288;2023-04-25T15:23:30;8.23;;;2.53;;
42586;SDS011;28216;53.362;-6.288;2023-04-25T15:25:56;6.78;;;2.53;;
42586;SDS011;28216;53.362;-6.288;2023-04-25T15:28:21;8.18;;;2.55;;
42586;SDS011;28216;53.362;-6.288;2023-04-25T15:30:47;6.43;;;2.38;;
42586;SDS011;28216;53.362;-6.288;2023-04-25T15:33:12;7.70;;;2.40;;
42586;SDS011;28216;53.362;-6.288;2023-04-25T15:35:38;6.70;;;2.22;;
42586;SDS011;28216;53.362;-6.288;2023-04-25T15:38:04;6.15;;;2.22;;
42586;SDS011;28216;53.362;-6.288;2023-04-25T15:40:30;8.43;;;3.03;;
42586;SDS011;28216;53.362;-6.288;2023-04-25T15:42:56;11.95;;;5.95;;
42586;SDS011;28216;53.362;-6.288;2023-04-25T15:45:22;10.45;;;2.92;;
42586;SDS011;28216;53.362;-6.288;2023-04-25T15:47:50;8.32;;;3.80;;
42586;SDS011;28216;53.362;-6.288;2023-04-25T15:50:19;9.00;;;4.40;;